createdAt,value
2023-01-05T00:01:36.410Z,3.08
2023-01-05T00:04:23.564Z,0.85
2023-01-05T00:07:10.171Z,1.23
2023-01-05T00:09:56.330Z,2.80
2023-01-05T00:13:00.539Z,1.20
2023-01-05T00:16:05.955Z,2.33
2023-01-05T00:19:10.803Z,5.57
2023-01-05T00:22:15.364Z,3.53
2023-01-05T00:25:13.146Z,1.30
2023-01-05T00:27:59.136Z,3.15
2023-01-05T00:30:46.757Z,1.60
2023-01-05T00:33:32.735Z,4.53
2023-01-05T00:36:17.920Z,6.63
2023-01-05T00:39:03.330Z,1.88
2023-01-05T00:41:48.796Z,2.33
2023-01-05T00:44:34.347Z,2.45
2023-01-05T00:47:19.669Z,3.33
2023-01-05T00:50:06.662Z,2.15
2023-01-05T00:52:51.792Z,2.05
2023-01-05T00:55:37.680Z,2.05
2023-01-05T00:58:23.739Z,1.98
2023-01-05T01:01:13.646Z,2.67
2023-01-05T01:03:59.003Z,1.80
2023-01-05T01:06:44.528Z,0.95
2023-01-05T01:09:30.291Z,2.45
2023-01-05T01:12:15.539Z,1.85
2023-01-05T01:15:00.954Z,1.20
2023-01-05T01:17:46.507Z,1.13
2023-01-05T01:20:31.524Z,1.42
2023-01-05T01:23:16.802Z,2.00
2023-01-05T01:26:09.923Z,1.00
2023-01-05T01:28:55.330Z,1.90
2023-01-05T01:31:40.724Z,2.28
2023-01-05T01:34:26.134Z,1.30
2023-01-05T01:37:12.564Z,1.30
2023-01-05T01:39:57.828Z,1.38
2023-01-05T01:42:43.271Z,1.65
2023-01-05T01:45:30.232Z,2.95
2023-01-05T01:48:18.600Z,1.55
2023-01-05T01:51:10.811Z,1.40
2023-01-05T01:53:58.937Z,1.92
2023-01-05T01:56:49.979Z,1.00
2023-01-05T01:59:35.066Z,2.33
2023-01-05T02:02:23.139Z,1.00
2023-01-05T02:05:11.348Z,2.08
2023-01-05T02:07:56.923Z,2.45
2023-01-05T02:10:54.091Z,1.27
2023-01-05T02:14:04.960Z,0.73
2023-01-05T02:17:15.626Z,1.65
2023-01-05T02:20:34.644Z,0.80
2023-01-05T02:23:45.681Z,2.28
2023-01-05T02:27:08.316Z,0.73
2023-01-05T02:30:32.278Z,0.63
2023-01-05T02:33:38.520Z,3.45
2023-01-05T02:36:28.513Z,0.63
2023-01-05T02:39:21.215Z,2.22
2023-01-05T02:42:22.583Z,0.85
2023-01-05T02:45:08.990Z,1.00
2023-01-05T02:47:54.095Z,0.80
2023-01-05T02:51:02.620Z,0.93
2023-01-05T02:53:53.661Z,0.60
2023-01-05T02:56:46.607Z,0.90
2023-01-05T02:59:39.604Z,0.60
2023-01-05T03:02:29.796Z,0.95
2023-01-05T03:05:26.439Z,0.40
2023-01-05T03:08:26.470Z,0.45
2023-01-05T03:11:33.204Z,0.70
2023-01-05T03:14:32.150Z,0.30
2023-01-05T03:17:25.892Z,0.75
2023-01-05T03:20:14.529Z,0.75
2023-01-05T03:23:21.660Z,0.47
2023-01-05T03:26:27.760Z,0.45
2023-01-05T03:29:31.624Z,0.55
2023-01-05T03:32:43.904Z,0.65
2023-01-05T03:35:33.832Z,1.63
2023-01-05T03:38:39.872Z,0.35
2023-01-05T03:41:27.373Z,0.32
2023-01-05T03:44:13.155Z,0.40
2023-01-05T03:46:58.203Z,0.50
2023-01-05T03:49:43.493Z,0.30
2023-01-05T03:52:28.780Z,1.15
2023-01-05T03:55:14.332Z,0.32
2023-01-05T03:57:59.553Z,0.30
2023-01-05T04:00:44.889Z,0.63
2023-01-05T04:03:32.199Z,0.50
2023-01-05T04:06:18.036Z,0.38
2023-01-05T04:09:03.559Z,0.75
2023-01-05T04:11:48.952Z,1.15
2023-01-05T04:14:34.177Z,1.27
2023-01-05T04:17:19.587Z,0.43
2023-01-05T04:20:08.101Z,2.72
2023-01-05T04:22:53.159Z,1.02
2023-01-05T04:25:38.407Z,4.70
2023-01-05T04:28:24.009Z,1.42
2023-01-05T04:31:09.201Z,0.82
2023-01-05T04:33:54.399Z,2.80
2023-01-05T04:36:40.557Z,2.10
2023-01-05T04:39:25.849Z,3.35
2023-01-05T04:42:11.138Z,7.45
2023-01-05T04:44:56.465Z,4.43
2023-01-05T04:47:41.716Z,2.35
2023-01-05T04:50:27.464Z,7.15
2023-01-05T04:53:13.181Z,2.60
2023-01-05T04:55:58.386Z,6.32
2023-01-05T04:58:44.285Z,3.03
2023-01-05T05:01:29.415Z,2.67
2023-01-05T05:04:14.686Z,2.65
2023-01-05T05:06:59.938Z,6.28
2023-01-05T05:09:45.311Z,6.55
2023-01-05T05:12:30.682Z,5.78
2023-01-05T05:15:16.165Z,10.32
2023-01-05T05:18:07.040Z,8.32
2023-01-05T05:20:54.180Z,1.38
2023-01-05T05:23:39.505Z,10.10
2023-01-05T05:26:24.939Z,6.07
2023-01-05T05:29:10.570Z,8.73
2023-01-05T05:31:55.635Z,5.82
2023-01-05T05:34:41.066Z,9.60
2023-01-05T05:37:26.526Z,8.85
2023-01-05T05:40:12.521Z,8.45
2023-01-05T05:42:57.817Z,7.00
2023-01-05T05:45:49.700Z,5.22
2023-01-05T05:48:35.636Z,9.27
2023-01-05T05:51:21.052Z,5.80
2023-01-05T05:54:06.413Z,6.13
2023-01-05T05:56:52.024Z,5.43
2023-01-05T05:59:37.553Z,9.77
2023-01-05T06:02:22.959Z,5.30
2023-01-05T06:05:08.870Z,5.93
2023-01-05T06:07:54.187Z,8.23
2023-01-05T06:10:39.603Z,9.80
2023-01-05T06:13:25.319Z,8.27
2023-01-05T06:16:10.612Z,12.93
2023-01-05T06:18:56.292Z,8.55
2023-01-05T06:21:41.340Z,6.90
2023-01-05T06:24:26.768Z,8.05
2023-01-05T06:27:12.325Z,7.82
2023-01-05T06:29:57.515Z,5.68
2023-01-05T06:32:42.933Z,5.65
2023-01-05T06:35:28.189Z,3.85
2023-01-05T06:38:15.992Z,8.05
2023-01-05T06:41:01.190Z,8.32
2023-01-05T06:43:46.636Z,6.82
2023-01-05T06:46:32.036Z,5.68
2023-01-05T06:49:17.289Z,7.25
2023-01-05T06:52:02.738Z,5.88
2023-01-05T06:54:48.044Z,11.25
2023-01-05T06:57:33.621Z,7.10
2023-01-05T07:00:18.874Z,7.70
2023-01-05T07:03:04.209Z,5.00
2023-01-05T07:05:49.725Z,4.57
2023-01-05T07:08:35.034Z,5.65
2023-01-05T07:11:20.543Z,13.30
2023-01-05T07:14:05.936Z,5.43
2023-01-05T07:16:51.285Z,5.75
2023-01-05T07:19:36.667Z,12.10
2023-01-05T07:22:22.216Z,4.53
2023-01-05T07:25:08.863Z,7.70
2023-01-05T07:27:54.004Z,9.15
2023-01-05T07:30:39.424Z,19.95
2023-01-05T07:33:24.827Z,3.53
2023-01-05T07:36:10.295Z,8.80
2023-01-05T07:38:59.347Z,14.30
2023-01-05T07:41:44.901Z,7.07
2023-01-05T07:44:32.024Z,10.05
2023-01-05T07:47:17.143Z,8.00
2023-01-05T07:50:02.603Z,6.60
2023-01-05T07:52:47.821Z,12.00
2023-01-05T07:55:33.405Z,10.05
2023-01-05T07:58:18.745Z,13.60
2023-01-05T08:01:05.727Z,9.40
2023-01-05T08:03:51.150Z,7.13
2023-01-05T08:06:36.376Z,5.30
2023-01-05T08:09:40.474Z,10.43
2023-01-05T08:12:27.520Z,8.02
2023-01-05T08:15:12.635Z,11.25
2023-01-05T08:17:58.134Z,10.32
2023-01-05T08:20:43.422Z,9.32
2023-01-05T08:23:28.740Z,5.00
2023-01-05T08:26:16.980Z,9.32
2023-01-05T08:29:02.215Z,9.35
2023-01-05T08:31:47.658Z,13.93
2023-01-05T08:34:34.868Z,7.78
2023-01-05T08:37:20.252Z,10.07
2023-01-05T08:40:06.462Z,12.02
2023-01-05T08:42:52.142Z,13.00
2023-01-05T08:45:37.209Z,8.60
2023-01-05T08:48:22.664Z,13.25
2023-01-05T08:51:07.976Z,3.90
2023-01-05T08:53:53.792Z,8.23
2023-01-05T08:56:39.656Z,10.18
2023-01-05T08:59:24.920Z,17.45
2023-01-05T09:02:13.385Z,6.90
2023-01-05T09:04:59.048Z,9.80
2023-01-05T09:07:44.949Z,10.40
2023-01-05T09:10:30.328Z,11.43
2023-01-05T09:13:15.567Z,12.23
2023-01-05T09:16:56.823Z,13.35
2023-01-05T09:19:27.773Z,10.82
2023-01-05T09:22:13.370Z,12.00
2023-01-05T09:24:58.649Z,9.18
2023-01-05T09:27:44.209Z,8.75
2023-01-05T09:30:32.117Z,13.90
2023-01-05T09:33:21.670Z,14.80
2023-01-05T09:36:08.329Z,16.95
2023-01-05T09:38:54.452Z,12.93
2023-01-05T09:41:53.856Z,8.57
2023-01-05T09:44:58.841Z,12.80
2023-01-05T09:47:46.666Z,14.30
2023-01-05T09:50:32.064Z,14.15
2023-01-05T09:53:29.818Z,13.90
2023-01-05T09:57:08.419Z,10.27
2023-01-05T09:59:49.238Z,11.27
2023-01-05T10:02:39.915Z,10.48
2023-01-05T10:05:48.173Z,12.73
2023-01-05T10:08:45.938Z,8.70
2023-01-05T10:12:14.805Z,11.55
2023-01-05T10:15:08.344Z,11.60
2023-01-05T10:17:53.482Z,17.58
2023-01-05T10:21:05.471Z,8.02
2023-01-05T10:24:19.461Z,17.48
2023-01-05T10:27:25.782Z,13.75
2023-01-05T10:30:26.841Z,15.07
2023-01-05T10:33:53.145Z,11.13
2023-01-05T10:37:09.876Z,15.85
2023-01-05T10:40:20.985Z,17.88
2023-01-05T10:43:24.374Z,11.85
2023-01-05T10:49:25.990Z,6.95
2023-01-05T10:52:17.481Z,10.43
2023-01-05T10:55:02.655Z,7.55
2023-01-05T10:57:48.243Z,13.05
2023-01-05T11:00:41.953Z,8.43
2023-01-05T11:04:23.777Z,8.73
2023-01-05T11:06:44.775Z,8.35
2023-01-05T11:09:30.194Z,8.43
2023-01-05T11:12:20.932Z,6.03
2023-01-05T11:15:13.248Z,11.05
2023-01-05T11:21:04.798Z,7.32
2023-01-05T11:23:58.517Z,6.78
2023-01-05T11:26:53.018Z,11.52
2023-01-05T11:29:38.313Z,8.32
2023-01-05T11:32:23.728Z,8.50
2023-01-05T11:35:20.854Z,13.65
2023-01-05T11:38:06.331Z,7.97
2023-01-05T11:40:52.396Z,9.63
2023-01-05T11:43:38.454Z,12.20
2023-01-05T11:46:24.112Z,4.88
2023-01-05T11:49:10.164Z,14.48
2023-01-05T11:51:55.453Z,9.60
2023-01-05T11:54:41.136Z,10.40
2023-01-05T11:57:27.015Z,7.72
2023-01-05T12:00:28.841Z,11.77
2023-01-05T12:03:32.424Z,7.27
2023-01-05T12:06:36.087Z,7.03
2023-01-05T12:09:44.825Z,9.30
2023-01-05T12:12:58.595Z,17.63
2023-01-05T12:16:13.267Z,15.18
2023-01-05T12:19:03.861Z,12.18
2023-01-05T12:22:18.035Z,13.80
2023-01-05T12:25:47.556Z,8.60
2023-01-05T12:36:12.349Z,6.28
2023-01-05T12:39:10.406Z,11.18
2023-01-05T12:42:23.279Z,8.38
2023-01-05T12:45:39.279Z,9.93
2023-01-05T12:48:34.522Z,10.68
2023-01-05T12:51:28.344Z,6.55
2023-01-05T12:54:23.208Z,7.25
2023-01-05T12:57:22.549Z,7.75
2023-01-05T13:00:17.980Z,9.73
2023-01-05T13:03:08.362Z,14.57
2023-01-05T13:06:06.220Z,8.65
2023-01-05T13:09:13.471Z,10.73
2023-01-05T13:12:05.031Z,9.60
2023-01-05T13:15:05.008Z,8.88
2023-01-05T13:17:53.537Z,12.45
2023-01-05T13:20:46.459Z,9.35
2023-01-05T13:23:47.188Z,7.63
2023-01-05T13:26:37.758Z,7.75
2023-01-05T13:29:31.654Z,13.52
2023-01-05T13:32:34.115Z,5.88
2023-01-05T13:35:56.856Z,5.85
2023-01-05T13:39:26.965Z,8.80
2023-01-05T13:42:29.226Z,11.10
2023-01-05T13:45:17.439Z,7.32
2023-01-05T13:48:44.077Z,7.85
2023-01-05T13:51:52.740Z,8.07
2023-01-05T13:55:01.452Z,7.50
2023-01-05T13:57:48.656Z,5.43
2023-01-05T14:00:38.511Z,6.22
2023-01-05T14:03:33.075Z,10.50
2023-01-05T14:06:29.115Z,4.20
2023-01-05T14:09:35.051Z,7.00
2023-01-05T14:12:20.182Z,11.35
2023-01-05T14:15:09.387Z,7.22
2023-01-05T14:17:59.131Z,6.15
2023-01-05T14:20:53.705Z,7.55
2023-01-05T14:23:40.674Z,9.13
2023-01-05T14:26:59.520Z,5.00
2023-01-05T14:29:48.098Z,6.13
2023-01-05T14:32:44.850Z,5.80
2023-01-05T14:35:37.113Z,6.80
2023-01-05T14:38:26.038Z,8.05
2023-01-05T14:41:26.580Z,4.45
2023-01-05T14:44:19.564Z,5.50
2023-01-05T14:50:03.336Z,4.82
2023-01-05T14:53:09.532Z,7.03
2023-01-05T14:55:55.855Z,6.45
2023-01-05T14:58:43.726Z,6.45
2023-01-05T15:01:45.884Z,8.00
2023-01-05T15:04:38.441Z,13.95
2023-01-05T15:10:47.048Z,7.70
2023-01-05T15:14:12.127Z,7.43
2023-01-05T15:17:35.037Z,3.65
2023-01-05T15:20:46.156Z,3.78
2023-01-05T15:24:19.206Z,5.18
2023-01-05T15:27:48.508Z,7.47
2023-01-05T15:31:06.033Z,5.45
2023-01-05T15:34:04.619Z,8.70
2023-01-05T15:36:52.260Z,6.00
2023-01-05T15:39:49.686Z,9.18
2023-01-05T15:42:38.473Z,7.72
2023-01-05T15:45:31.495Z,9.35
2023-01-05T15:48:27.525Z,5.40
2023-01-05T15:51:24.711Z,4.07
2023-01-05T15:54:24.429Z,9.85
2023-01-05T15:57:21.029Z,6.97
2023-01-05T16:00:18.055Z,11.50
2023-01-05T16:03:20.250Z,12.48
2023-01-05T16:06:26.436Z,11.90
2023-01-05T16:09:40.970Z,10.95
2023-01-05T16:12:26.617Z,12.85
2023-01-05T16:15:17.448Z,10.25
2023-01-05T16:18:05.909Z,10.82
2023-01-05T16:20:53.667Z,9.38
2023-01-05T16:23:52.945Z,8.23
2023-01-05T16:26:38.618Z,12.02
2023-01-05T16:29:44.597Z,12.73
2023-01-05T16:32:34.788Z,9.93
2023-01-05T16:35:38.617Z,12.93
2023-01-05T16:38:30.423Z,15.10
2023-01-05T16:41:28.365Z,14.05
2023-01-05T16:44:13.908Z,12.82
2023-01-05T16:47:07.843Z,18.05
2023-01-05T16:49:57.943Z,12.35
2023-01-05T16:53:11.708Z,16.00
2023-01-05T16:58:45.158Z,15.30
2023-01-05T17:01:35.980Z,12.73
2023-01-05T17:04:21.611Z,9.73
2023-01-05T17:07:09.571Z,13.45
2023-01-05T17:09:54.904Z,22.17
2023-01-05T17:12:40.409Z,15.18
2023-01-05T17:15:29.547Z,15.65
2023-01-05T17:18:26.677Z,11.45
2023-01-05T17:21:20.515Z,13.27
2023-01-05T17:24:05.875Z,11.40
2023-01-05T17:26:51.238Z,13.00
2023-01-05T17:29:37.167Z,17.48
2023-01-05T17:32:22.493Z,18.67
2023-01-05T17:35:07.822Z,16.38
2023-01-05T17:37:53.367Z,13.95
2023-01-05T17:40:39.613Z,16.25
2023-01-05T17:43:25.021Z,11.20
2023-01-05T17:46:17.764Z,14.38
2023-01-05T17:49:04.512Z,15.77
2023-01-05T17:51:50.051Z,14.90
2023-01-05T17:54:35.328Z,16.58
2023-01-05T17:57:20.758Z,13.35
2023-01-05T18:00:08.395Z,21.85
2023-01-05T18:02:54.533Z,16.27
2023-01-05T18:05:39.725Z,11.55
2023-01-05T18:08:25.004Z,13.52
2023-01-05T18:11:10.656Z,12.50
2023-01-05T18:13:56.144Z,21.70
2023-01-05T18:16:46.175Z,23.20
2023-01-05T18:19:32.664Z,12.20
2023-01-05T18:22:19.480Z,19.33
2023-01-05T18:27:55.406Z,18.92
2023-01-05T18:30:42.498Z,13.40
2023-01-05T18:33:27.810Z,24.65
2023-01-05T18:36:14.491Z,18.48
2023-01-05T18:38:59.905Z,14.38
2023-01-05T18:41:45.213Z,14.95
2023-01-05T18:44:30.648Z,14.93
2023-01-05T18:47:16.214Z,15.68
2023-01-05T18:50:01.701Z,20.58
2023-01-05T18:52:48.714Z,18.95
2023-01-05T18:55:33.816Z,22.13
2023-01-05T18:58:19.161Z,21.23
2023-01-05T19:01:10.235Z,17.92
2023-01-05T19:03:55.762Z,12.32
2023-01-05T19:06:41.282Z,14.73
2023-01-05T19:09:26.328Z,18.42
2023-01-05T19:12:11.577Z,15.68
2023-01-05T19:14:56.926Z,10.88
2023-01-05T19:17:42.282Z,15.18
2023-01-05T19:20:27.843Z,15.18
2023-01-05T19:23:13.134Z,12.10
2023-01-05T19:26:06.510Z,15.45
2023-01-05T19:28:51.594Z,12.45
2023-01-05T19:31:37.599Z,17.88
2023-01-05T19:34:23.018Z,14.35
2023-01-05T19:37:08.432Z,12.32
2023-01-05T19:39:53.823Z,14.20
2023-01-05T19:42:39.078Z,12.35
2023-01-05T19:45:24.588Z,17.00
2023-01-05T19:48:09.874Z,9.88
2023-01-05T19:51:05.453Z,16.67
2023-01-05T19:53:56.469Z,8.45
2023-01-05T19:56:42.612Z,15.23
2023-01-05T19:59:33.272Z,15.75
2023-01-05T20:02:18.771Z,6.85
2023-01-05T20:05:04.038Z,18.30
2023-01-05T20:07:49.503Z,17.73
2023-01-05T20:10:38.097Z,17.30
2023-01-05T20:13:23.308Z,11.50
2023-01-05T20:16:12.172Z,14.38
2023-01-05T20:18:58.165Z,10.60
2023-01-05T20:21:43.476Z,14.40
2023-01-05T20:24:31.350Z,11.93
2023-01-05T20:27:16.958Z,10.82
2023-01-05T20:30:02.161Z,9.73
2023-01-05T20:32:47.659Z,16.70
2023-01-05T20:35:32.966Z,15.05
2023-01-05T20:38:18.797Z,11.57
2023-01-05T20:41:13.051Z,11.73
2023-01-05T20:43:58.678Z,14.32
2023-01-05T20:46:46.258Z,12.55
2023-01-05T20:49:31.761Z,15.27
2023-01-05T20:52:17.713Z,11.32
2023-01-05T20:55:03.139Z,11.82
2023-01-05T20:57:48.827Z,7.63
2023-01-05T21:00:34.150Z,7.82
2023-01-05T21:03:19.435Z,10.43
2023-01-05T21:06:06.504Z,16.42
2023-01-05T21:08:51.876Z,14.63
2023-01-05T21:11:37.912Z,12.98
2023-01-05T21:14:23.026Z,13.82
2023-01-05T21:17:08.600Z,11.63
2023-01-05T21:19:54.162Z,7.80
2023-01-05T21:22:39.577Z,12.35
2023-01-05T21:25:25.093Z,14.65
2023-01-05T21:28:10.992Z,9.57
2023-01-05T21:31:02.440Z,15.02
2023-01-05T21:33:48.560Z,12.32
2023-01-05T21:36:38.398Z,8.70
2023-01-05T21:39:25.892Z,17.05
2023-01-05T21:42:29.599Z,7.57
2023-01-05T21:45:15.889Z,12.90
2023-01-05T21:48:01.199Z,12.63
2023-01-05T21:51:05.256Z,11.02
2023-01-05T21:54:09.101Z,11.40
2023-01-05T21:56:56.520Z,13.02
2023-01-05T21:59:42.360Z,12.23
2023-01-05T22:02:27.799Z,10.90
2023-01-05T22:05:13.400Z,18.88
2023-01-05T22:07:58.878Z,15.82
2023-01-05T22:10:44.424Z,13.23
2023-01-05T22:13:29.909Z,14.15
2023-01-05T22:16:15.417Z,12.93
2023-01-05T22:19:00.978Z,12.15
2023-01-05T22:21:46.481Z,12.50
2023-01-05T22:24:32.022Z,14.13
2023-01-05T22:27:17.458Z,17.40
2023-01-05T22:30:03.060Z,11.85
2023-01-05T22:32:48.979Z,10.45
2023-01-05T22:35:39.803Z,17.98
2023-01-05T22:38:25.203Z,10.63
2023-01-05T22:41:13.647Z,20.15
2023-01-05T22:43:59.553Z,11.25
2023-01-05T22:46:44.853Z,11.98
2023-01-05T22:49:30.618Z,17.95
2023-01-05T22:52:15.694Z,19.83
2023-01-05T22:55:01.002Z,12.18
2023-01-05T22:57:46.264Z,15.75
2023-01-05T23:00:31.729Z,19.38
2023-01-05T23:03:17.023Z,18.55
2023-01-05T23:06:02.584Z,11.77
2023-01-05T23:08:48.816Z,12.88
2023-01-05T23:11:37.353Z,17.98
2023-01-05T23:14:22.664Z,14.55
2023-01-05T23:17:12.127Z,13.45
2023-01-05T23:19:57.355Z,16.55
2023-01-05T23:22:42.819Z,12.07
2023-01-05T23:25:27.928Z,15.80
2023-01-05T23:28:13.270Z,11.10
2023-01-05T23:30:59.622Z,17.85
2023-01-05T23:33:46.442Z,12.02
2023-01-05T23:36:31.406Z,16.73
2023-01-05T23:39:17.053Z,20.55
2023-01-05T23:42:03.195Z,14.63
2023-01-05T23:44:48.304Z,12.70
2023-01-05T23:47:33.572Z,14.90
2023-01-05T23:50:18.888Z,15.98
2023-01-05T23:53:04.294Z,24.35
2023-01-05T23:55:49.664Z,12.88
2023-01-05T23:58:35.122Z,16.85
